createdAt,value
2022-08-24T00:02:11.109Z,15.20
2022-08-24T00:06:15.220Z,15.10
2022-08-24T00:10:13.562Z,15.00
2022-08-24T00:14:12.127Z,15.00
2022-08-24T00:18:09.279Z,15.00
2022-08-24T00:22:06.404Z,14.90
2022-08-24T00:26:05.414Z,14.80
2022-08-24T00:30:05.915Z,14.80
2022-08-24T00:34:03.654Z,14.80
2022-08-24T00:38:00.774Z,14.70
2022-08-24T00:41:57.873Z,14.60
2022-08-24T00:46:17.071Z,14.60
2022-08-24T00:50:29.697Z,14.60
2022-08-24T00:54:31.999Z,14.50
2022-08-24T00:58:36.773Z,14.50
2022-08-24T01:02:42.228Z,14.50
2022-08-24T01:06:39.630Z,14.40
2022-08-24T01:10:45.492Z,14.40
2022-08-24T01:14:43.591Z,14.30
2022-08-24T01:18:50.478Z,14.20
2022-08-24T01:23:22.711Z,14.10
2022-08-24T01:27:22.924Z,14.00
2022-08-24T01:31:26.095Z,14.00
2022-08-24T01:35:24.126Z,14.00
2022-08-24T01:39:27.023Z,13.90
2022-08-24T01:43:25.004Z,13.90
2022-08-24T01:47:22.355Z,13.80
2022-08-24T01:51:21.333Z,13.80
2022-08-24T01:55:22.471Z,13.70
2022-08-24T01:59:20.811Z,13.70
2022-08-24T02:03:17.948Z,13.70
2022-08-24T02:07:23.248Z,13.70
2022-08-24T02:11:20.431Z,13.70
2022-08-24T02:15:17.431Z,13.60
2022-08-24T02:19:14.645Z,13.60
2022-08-24T02:23:12.163Z,13.60
2022-08-24T02:27:09.351Z,13.50
2022-08-24T02:31:09.798Z,13.40
2022-08-24T02:35:07.266Z,13.40
2022-08-24T02:39:05.872Z,13.40
2022-08-24T02:43:04.560Z,13.40
2022-08-24T02:47:01.770Z,13.30
2022-08-24T02:50:59.239Z,13.30
2022-08-24T02:54:57.686Z,13.30
2022-08-24T02:58:55.111Z,13.20
2022-08-24T03:02:53.319Z,13.20
2022-08-24T03:06:51.228Z,13.20
2022-08-24T03:10:48.326Z,13.10
2022-08-24T03:14:46.924Z,13.10
2022-08-24T03:18:45.551Z,13.10
2022-08-24T03:22:44.912Z,13.10
2022-08-24T03:26:44.267Z,13.10
2022-08-24T03:30:46.826Z,13.10
2022-08-24T03:34:46.645Z,13.00
2022-08-24T03:38:43.709Z,13.00
2022-08-24T03:42:41.115Z,13.00
2022-08-24T03:46:40.685Z,13.00
2022-08-24T03:50:37.748Z,12.90
2022-08-24T03:54:35.083Z,12.90
2022-08-24T03:58:32.194Z,12.90
2022-08-24T04:02:32.869Z,12.90
2022-08-24T04:06:30.727Z,12.90
2022-08-24T04:10:28.883Z,12.80
2022-08-24T04:14:27.392Z,12.80
2022-08-24T04:18:36.748Z,12.70
2022-08-24T04:22:34.382Z,12.70
2022-08-24T04:26:45.730Z,12.70
2022-08-24T04:30:51.519Z,12.70
2022-08-24T04:35:03.871Z,12.70
2022-08-24T04:39:05.426Z,12.70
2022-08-24T04:43:33.162Z,12.70
2022-08-24T04:47:30.307Z,12.70
2022-08-24T04:51:27.394Z,12.80
2022-08-24T04:55:41.234Z,12.90
2022-08-24T04:59:38.314Z,12.90
2022-08-24T05:03:35.432Z,13.00
2022-08-24T05:07:32.477Z,13.00
2022-08-24T05:11:30.108Z,13.10
2022-08-24T05:15:28.038Z,13.20
2022-08-24T05:19:25.532Z,13.30
2022-08-24T05:23:23.283Z,13.40
2022-08-24T05:27:21.350Z,13.50
2022-08-24T05:31:25.453Z,13.60
2022-08-24T05:35:22.538Z,13.70
2022-08-24T05:39:21.267Z,13.70
2022-08-24T05:43:24.559Z,13.80
2022-08-24T05:47:21.779Z,14.00
2022-08-24T05:51:19.406Z,14.20
2022-08-24T05:55:25.484Z,14.30
2022-08-24T05:59:22.836Z,14.40
2022-08-24T06:03:20.249Z,14.50
2022-08-24T06:07:20.745Z,14.70
2022-08-24T06:11:29.961Z,14.90
2022-08-24T06:15:28.326Z,15.10
2022-08-24T06:19:27.203Z,15.40
2022-08-24T06:23:25.303Z,15.50
2022-08-24T06:27:29.982Z,15.60
2022-08-24T06:31:29.208Z,15.80
2022-08-24T06:35:36.625Z,16.00
2022-08-24T06:39:33.840Z,16.20
2022-08-24T06:43:32.523Z,16.40
2022-08-24T06:47:32.327Z,16.60
2022-08-24T06:51:32.528Z,16.80
2022-08-24T06:55:30.983Z,17.00
2022-08-24T06:59:29.562Z,17.20
2022-08-24T07:03:26.961Z,17.40
2022-08-24T07:07:37.619Z,17.60
2022-08-24T07:11:36.144Z,17.70
2022-08-24T07:15:35.671Z,17.90
2022-08-24T07:19:42.433Z,18.10
2022-08-24T07:23:41.161Z,18.20
2022-08-24T07:27:39.802Z,18.40
2022-08-24T07:31:39.932Z,18.50
2022-08-24T07:35:57.590Z,18.80
2022-08-24T07:39:54.919Z,19.00
2022-08-24T07:43:56.765Z,19.20
2022-08-24T07:47:56.032Z,19.50
2022-08-24T07:52:05.872Z,19.60
2022-08-24T07:56:03.961Z,19.80
2022-08-24T08:00:07.072Z,20.20
2022-08-24T08:04:12.249Z,20.50
2022-08-24T08:08:10.093Z,21.10
2022-08-24T08:12:08.269Z,21.90
2022-08-24T08:16:08.571Z,22.60
2022-08-24T08:20:08.976Z,23.10
2022-08-24T08:24:16.736Z,23.10
2022-08-24T08:28:26.215Z,23.30
2022-08-24T08:32:31.389Z,23.60
2022-08-24T08:36:28.655Z,23.80
2022-08-24T08:40:45.363Z,24.10
2022-08-24T08:45:27.170Z,24.70
2022-08-24T08:50:21.963Z,25.30
2022-08-24T08:54:37.361Z,25.80
2022-08-24T08:59:11.422Z,26.50
2022-08-24T09:03:32.474Z,26.40
2022-08-24T09:08:20.020Z,26.20
2022-08-24T09:12:43.735Z,26.80
2022-08-24T09:17:18.602Z,26.40
2022-08-24T09:22:03.439Z,25.90
2022-08-24T09:26:29.247Z,26.80
2022-08-24T09:31:06.851Z,27.50
2022-08-24T09:35:12.534Z,27.80
2022-08-24T09:40:00.517Z,28.00
2022-08-24T09:44:39.636Z,28.70
2022-08-24T09:49:26.886Z,28.90
2022-08-24T09:53:40.767Z,29.20
2022-08-24T09:58:01.906Z,28.80
2022-08-24T10:02:43.831Z,28.80
2022-08-24T10:07:30.046Z,29.50
2022-08-24T10:11:57.591Z,30.00
2022-08-24T10:16:17.780Z,29.20
2022-08-24T10:20:32.857Z,28.50
2022-08-24T10:25:02.562Z,29.30
2022-08-24T10:30:03.450Z,31.10
2022-08-24T10:34:36.135Z,32.10
2022-08-24T10:39:33.255Z,33.90
2022-08-24T10:44:18.658Z,34.20
2022-08-24T10:48:34.689Z,34.20
2022-08-24T10:53:17.891Z,33.80
2022-08-24T10:57:36.452Z,32.00
2022-08-24T11:01:40.126Z,31.20
2022-08-24T11:05:47.873Z,30.10
2022-08-24T11:09:59.089Z,28.90
2022-08-24T11:14:09.610Z,28.30
2022-08-24T11:18:06.750Z,27.80
2022-08-24T11:22:41.666Z,27.00
2022-08-24T11:26:57.327Z,27.20
2022-08-24T11:30:54.427Z,27.80
2022-08-24T11:34:51.688Z,28.30
2022-08-24T11:39:09.391Z,28.60
2022-08-24T11:44:02.090Z,28.80
2022-08-24T11:48:15.679Z,28.50
2022-08-24T11:52:50.734Z,28.00
2022-08-24T11:57:08.477Z,28.00
2022-08-24T12:01:23.931Z,28.30
2022-08-24T12:05:49.299Z,30.40
2022-08-24T12:10:09.831Z,31.20
2022-08-24T12:14:26.702Z,30.10
2022-08-24T12:18:56.667Z,31.50
2022-08-24T12:23:02.692Z,34.70
2022-08-24T12:27:11.439Z,35.60
2022-08-24T12:31:28.363Z,36.10
2022-08-24T12:35:38.207Z,34.80
2022-08-24T12:40:25.375Z,34.30
2022-08-24T12:44:34.674Z,33.10
2022-08-24T12:48:54.937Z,33.10
2022-08-24T12:53:43.495Z,33.10
2022-08-24T12:58:54.645Z,31.60
2022-08-24T13:02:48.283Z,30.10
2022-08-24T13:06:59.913Z,30.00
2022-08-24T13:11:10.587Z,29.80
2022-08-24T13:15:31.652Z,29.30
2022-08-24T13:19:28.672Z,29.00
2022-08-24T13:23:27.419Z,28.40
2022-08-24T13:27:24.785Z,28.00
2022-08-24T13:31:35.036Z,28.20
2022-08-24T13:35:41.082Z,28.20
2022-08-24T13:40:02.789Z,27.80
2022-08-24T13:44:41.742Z,28.00
2022-08-24T13:49:02.763Z,28.30
2022-08-24T13:53:37.383Z,28.30
2022-08-24T13:57:42.318Z,28.10
2022-08-24T14:02:08.051Z,28.10
2022-08-24T14:06:31.994Z,27.80
2022-08-24T14:10:42.715Z,27.50
2022-08-24T14:15:41.929Z,27.50
2022-08-24T14:20:09.893Z,27.70
2022-08-24T14:24:43.850Z,28.20
2022-08-24T14:28:44.012Z,29.10
2022-08-24T14:33:00.333Z,29.80
2022-08-24T14:37:32.955Z,29.80
2022-08-24T14:42:01.005Z,30.60
2022-08-24T14:46:10.947Z,29.80
2022-08-24T14:50:23.501Z,30.00
2022-08-24T14:54:57.563Z,29.60
2022-08-24T14:59:34.243Z,29.50
2022-08-24T15:04:09.031Z,29.80
2022-08-24T15:08:11.781Z,30.40
2022-08-24T15:12:35.404Z,30.40
2022-08-24T15:17:10.566Z,30.20
2022-08-24T15:21:36.171Z,30.40
2022-08-24T15:26:04.836Z,31.50
2022-08-24T15:30:07.906Z,31.40
2022-08-24T15:34:05.446Z,32.70
2022-08-24T15:38:31.584Z,32.40
2022-08-24T15:42:34.638Z,32.20
2022-08-24T15:46:54.310Z,31.70
2022-08-24T15:50:55.142Z,31.40
2022-08-24T15:55:01.383Z,32.60
2022-08-24T15:59:28.387Z,33.50
2022-08-24T16:03:54.767Z,33.70
2022-08-24T16:08:03.213Z,32.70
2022-08-24T16:12:09.127Z,32.90
2022-08-24T16:16:15.933Z,31.10
2022-08-24T16:20:25.170Z,30.20
2022-08-24T16:24:22.044Z,30.30
2022-08-24T16:28:21.815Z,31.10
2022-08-24T16:32:33.038Z,31.50
2022-08-24T16:36:40.470Z,30.80
2022-08-24T16:40:37.827Z,29.40
2022-08-24T16:44:40.578Z,29.20
2022-08-24T16:48:37.627Z,29.20
2022-08-24T16:52:34.689Z,29.10
2022-08-24T16:56:31.774Z,28.80
2022-08-24T17:00:29.279Z,28.70
2022-08-24T17:04:26.650Z,28.60
2022-08-24T17:08:28.578Z,28.70
2022-08-24T17:12:26.948Z,28.30
2022-08-24T17:16:24.111Z,28.40
2022-08-24T17:20:21.313Z,28.20
2022-08-24T17:24:23.032Z,28.00
2022-08-24T17:28:20.088Z,27.70
2022-08-24T17:32:17.081Z,27.70
2022-08-24T17:36:20.416Z,27.80
2022-08-24T17:40:26.393Z,27.70
2022-08-24T17:44:28.995Z,27.50
2022-08-24T17:48:27.497Z,27.40
2022-08-24T17:52:24.509Z,26.90
2022-08-24T17:56:21.777Z,26.50
2022-08-24T18:00:19.549Z,26.00
2022-08-24T18:04:17.246Z,25.50
2022-08-24T18:08:14.772Z,25.00
2022-08-24T18:12:12.259Z,24.60
2022-08-24T18:16:17.923Z,24.20
2022-08-24T18:20:21.342Z,23.90
2022-08-24T18:24:18.635Z,23.50
2022-08-24T18:28:19.982Z,23.20
2022-08-24T18:32:17.923Z,23.00
2022-08-24T18:36:14.999Z,22.80
2022-08-24T18:40:15.691Z,22.60
2022-08-24T18:44:27.204Z,22.30
2022-08-24T18:48:28.227Z,22.20
2022-08-24T18:52:26.662Z,22.00
2022-08-24T18:56:24.821Z,21.80
2022-08-24T19:00:21.931Z,21.70
2022-08-24T19:04:19.060Z,21.50
2022-08-24T19:08:20.020Z,21.40
2022-08-24T19:12:18.214Z,21.30
2022-08-24T19:16:15.318Z,21.20
2022-08-24T19:20:13.797Z,21.00
2022-08-24T19:24:10.929Z,21.00
2022-08-24T19:28:08.294Z,20.90
2022-08-24T19:32:10.093Z,20.80
2022-08-24T19:36:18.181Z,20.70
2022-08-24T19:40:17.434Z,20.60
2022-08-24T19:44:37.674Z,20.50
2022-08-24T19:48:40.073Z,20.40
2022-08-24T19:52:39.979Z,20.30
2022-08-24T19:56:37.031Z,20.30
2022-08-24T20:00:42.653Z,20.20
2022-08-24T20:04:45.332Z,20.10
2022-08-24T20:08:43.730Z,20.10
2022-08-24T20:12:45.698Z,20.00
2022-08-24T20:16:42.910Z,19.90
2022-08-24T20:20:40.479Z,19.80
2022-08-24T20:24:37.538Z,19.70
2022-08-24T20:28:42.686Z,19.70
2022-08-24T20:32:39.747Z,19.60
2022-08-24T20:36:48.217Z,19.60
2022-08-24T20:40:46.322Z,19.40
2022-08-24T20:44:44.690Z,19.40
2022-08-24T20:48:43.153Z,19.30
2022-08-24T20:52:42.251Z,19.30
2022-08-24T20:56:39.443Z,19.20
2022-08-24T21:00:37.501Z,19.10
2022-08-24T21:04:34.606Z,19.00
2022-08-24T21:08:32.672Z,18.90
2022-08-24T21:12:32.712Z,18.80
2022-08-24T21:16:30.067Z,18.70
2022-08-24T21:20:28.125Z,18.60
2022-08-24T21:24:25.966Z,18.50
2022-08-24T21:28:23.186Z,18.50
2022-08-24T21:32:38.706Z,18.40
2022-08-24T21:36:37.096Z,18.30
2022-08-24T21:40:35.660Z,18.20
2022-08-24T21:44:33.702Z,18.10
2022-08-24T21:48:30.719Z,18.00
2022-08-24T21:52:27.793Z,17.90
2022-08-24T21:56:29.126Z,17.80
2022-08-24T22:00:26.224Z,17.80
2022-08-24T22:04:23.308Z,17.80
2022-08-24T22:08:20.361Z,17.70
2022-08-24T22:12:18.414Z,17.60
2022-08-24T22:16:15.508Z,17.60
2022-08-24T22:20:21.709Z,17.50
2022-08-24T22:24:20.551Z,17.50
2022-08-24T22:28:18.040Z,17.40
2022-08-24T22:32:15.365Z,17.30
2022-08-24T22:36:13.831Z,17.20
2022-08-24T22:40:12.753Z,17.20
2022-08-24T22:44:19.460Z,17.20
2022-08-24T22:48:16.575Z,17.10
2022-08-24T22:52:15.474Z,17.00
2022-08-24T22:56:25.613Z,16.90
2022-08-24T23:00:22.952Z,16.90
2022-08-24T23:04:28.934Z,16.80
2022-08-24T23:08:25.930Z,16.80
2022-08-24T23:12:24.350Z,16.70
2022-08-24T23:16:21.415Z,16.60
2022-08-24T23:20:19.339Z,16.70
2022-08-24T23:24:16.528Z,16.70
2022-08-24T23:28:13.529Z,16.70
2022-08-24T23:32:10.660Z,16.60
2022-08-24T23:36:17.582Z,16.60
2022-08-24T23:40:15.271Z,16.50
2022-08-24T23:44:25.997Z,16.40
2022-08-24T23:48:23.011Z,16.40
2022-08-24T23:52:28.383Z,16.30
2022-08-24T23:56:30.799Z,16.30
